createdAt,value
2023-05-18T00:00:37.560Z,6.95
2023-05-18T00:03:03.577Z,7.03
2023-05-18T00:05:33.372Z,6.87
2023-05-18T00:08:00.579Z,6.83
2023-05-18T00:10:26.624Z,6.88
2023-05-18T00:12:52.625Z,6.98
2023-05-18T00:15:18.742Z,6.77
2023-05-18T00:17:45.001Z,6.68
2023-05-18T00:20:11.509Z,6.77
2023-05-18T00:22:41.895Z,6.90
2023-05-18T00:25:08.203Z,6.82
2023-05-18T00:27:34.128Z,6.65
2023-05-18T00:30:00.209Z,6.70
2023-05-18T00:32:26.168Z,6.54
2023-05-18T00:34:52.105Z,6.64
2023-05-18T00:37:17.982Z,6.38
2023-05-18T00:39:43.919Z,6.41
2023-05-18T00:42:09.850Z,6.21
2023-05-18T00:44:35.708Z,6.14
2023-05-18T00:47:01.560Z,6.31
2023-05-18T00:49:27.604Z,6.35
2023-05-18T00:51:54.348Z,6.39
2023-05-18T00:54:20.295Z,5.93
2023-05-18T00:56:47.664Z,6.10
2023-05-18T00:59:14.769Z,6.14
2023-05-18T01:01:45.455Z,5.99
2023-05-18T01:04:13.558Z,5.87
2023-05-18T01:06:40.650Z,6.00
2023-05-18T01:09:09.771Z,6.01
2023-05-18T01:12:16.224Z,5.95
2023-05-18T01:14:51.910Z,5.77
2023-05-18T01:18:04.177Z,5.51
2023-05-18T01:20:48.863Z,5.55
2023-05-18T01:23:33.271Z,5.46
2023-05-18T01:25:59.100Z,5.41
2023-05-18T01:28:29.555Z,5.56
2023-05-18T01:30:56.938Z,5.68
2023-05-18T01:33:24.437Z,5.70
2023-05-18T01:35:51.275Z,5.60
2023-05-18T01:38:19.596Z,5.77
2023-05-18T01:40:59.267Z,5.67
2023-05-18T01:43:31.428Z,5.66
2023-05-18T01:46:04.334Z,5.52
2023-05-18T01:48:33.759Z,5.51
2023-05-18T01:51:00.072Z,5.53
2023-05-18T01:53:31.705Z,5.45
2023-05-18T01:55:59.008Z,5.28
2023-05-18T01:58:25.783Z,5.16
2023-05-18T02:00:52.387Z,5.46
2023-05-18T02:03:18.345Z,5.21
2023-05-18T02:05:44.341Z,5.28
2023-05-18T02:08:10.330Z,5.26
2023-05-18T02:10:36.195Z,5.19
2023-05-18T02:13:02.062Z,5.32
2023-05-18T02:15:28.228Z,5.21
2023-05-18T02:17:57.478Z,4.89
2023-05-18T02:20:23.587Z,5.12
2023-05-18T02:22:49.863Z,5.00
2023-05-18T02:25:16.408Z,5.06
2023-05-18T02:27:42.483Z,5.05
2023-05-18T02:30:08.824Z,4.99
2023-05-18T02:32:37.607Z,5.09
2023-05-18T02:35:05.946Z,5.08
2023-05-18T02:37:33.653Z,5.25
2023-05-18T02:40:00.797Z,5.11
2023-05-18T02:42:26.675Z,5.14
2023-05-18T02:44:52.533Z,5.25
2023-05-18T02:47:18.402Z,5.23
2023-05-18T02:49:44.259Z,5.19
2023-05-18T02:52:10.230Z,5.17
2023-05-18T02:54:36.302Z,5.05
2023-05-18T02:57:02.169Z,4.92
2023-05-18T02:59:28.025Z,4.84
2023-05-18T03:01:53.870Z,4.95
2023-05-18T03:04:21.228Z,5.01
2023-05-18T03:06:52.035Z,4.97
2023-05-18T03:09:19.290Z,4.77
2023-05-18T03:11:45.216Z,4.89
2023-05-18T03:14:11.085Z,4.89
2023-05-18T03:16:38.190Z,4.85
2023-05-18T03:19:04.117Z,4.92
2023-05-18T03:21:32.917Z,4.96
2023-05-18T03:23:59.722Z,4.73
2023-05-18T03:26:26.216Z,4.77
2023-05-18T03:28:52.046Z,4.95
2023-05-18T03:31:18.002Z,4.90
2023-05-18T03:33:43.934Z,4.81
2023-05-18T03:36:10.046Z,4.80
2023-05-18T03:38:36.002Z,4.81
2023-05-18T03:41:01.921Z,4.75
2023-05-18T03:43:28.930Z,4.66
2023-05-18T03:45:55.299Z,4.48
2023-05-18T03:48:24.050Z,4.46
2023-05-18T03:50:50.236Z,4.70
2023-05-18T03:53:24.804Z,4.58
2023-05-18T03:55:50.989Z,4.70
2023-05-18T03:58:19.368Z,4.62
2023-05-18T04:00:46.689Z,4.52
2023-05-18T04:03:14.018Z,4.58
2023-05-18T04:05:43.146Z,4.62
2023-05-18T04:08:10.232Z,4.78
2023-05-18T04:10:36.193Z,4.80
2023-05-18T04:13:02.483Z,4.82
2023-05-18T04:15:28.473Z,4.74
2023-05-18T04:17:54.403Z,4.66
2023-05-18T04:20:20.561Z,4.77
2023-05-18T04:22:47.449Z,4.84
2023-05-18T04:25:14.353Z,4.84
2023-05-18T04:27:41.397Z,4.87
2023-05-18T04:30:10.034Z,4.86
2023-05-18T04:32:36.454Z,5.10
2023-05-18T04:35:06.653Z,5.08
2023-05-18T04:37:33.240Z,4.98
2023-05-18T04:40:01.467Z,5.13
2023-05-18T04:42:28.220Z,5.13
2023-05-18T04:44:54.184Z,5.08
2023-05-18T04:47:23.275Z,5.28
2023-05-18T04:49:51.674Z,5.16
2023-05-18T04:52:21.063Z,5.29
2023-05-18T04:54:47.009Z,5.21
2023-05-18T04:57:16.274Z,5.43
2023-05-18T04:59:46.615Z,5.40
2023-05-18T05:02:13.367Z,5.43
2023-05-18T05:04:39.315Z,5.51
2023-05-18T05:07:05.242Z,5.54
2023-05-18T05:09:31.192Z,5.63
2023-05-18T05:11:57.061Z,5.64
2023-05-18T05:14:22.952Z,5.58
2023-05-18T05:16:48.788Z,5.67
2023-05-18T05:19:14.797Z,5.76
2023-05-18T05:21:40.940Z,5.44
2023-05-18T05:24:07.760Z,5.50
2023-05-18T05:26:34.542Z,5.64
2023-05-18T05:29:00.389Z,5.67
2023-05-18T05:31:26.521Z,5.89
2023-05-18T05:33:52.938Z,6.02
2023-05-18T05:36:18.857Z,6.02
2023-05-18T05:38:45.032Z,6.00
2023-05-18T05:41:11.016Z,6.06
2023-05-18T05:43:36.860Z,6.14
2023-05-18T05:46:02.788Z,5.94
2023-05-18T05:48:28.626Z,6.07
2023-05-18T05:50:54.539Z,6.19
2023-05-18T05:53:22.681Z,6.32
2023-05-18T05:55:48.655Z,6.36
2023-05-18T05:58:14.562Z,6.44
2023-05-18T06:00:41.090Z,6.50
2023-05-18T06:03:07.726Z,6.49
2023-05-18T06:05:33.754Z,6.42
2023-05-18T06:08:00.058Z,6.49
2023-05-18T06:10:26.153Z,6.58
2023-05-18T06:12:52.037Z,6.43
2023-05-18T06:15:18.520Z,6.61
2023-05-18T06:17:44.663Z,6.72
2023-05-18T06:20:11.545Z,6.90
2023-05-18T06:22:37.448Z,6.87
2023-05-18T06:25:03.715Z,6.99
2023-05-18T06:27:29.541Z,7.06
2023-05-18T06:29:55.503Z,7.13
2023-05-18T06:32:21.690Z,7.04
2023-05-18T06:34:49.896Z,7.12
2023-05-18T06:37:17.183Z,7.05
2023-05-18T06:39:43.080Z,7.23
2023-05-18T06:42:08.963Z,7.38
2023-05-18T06:44:35.276Z,7.36
2023-05-18T06:47:01.445Z,7.54
2023-05-18T06:49:27.519Z,7.59
2023-05-18T06:51:53.381Z,7.64
2023-05-18T06:54:19.334Z,7.80
2023-05-18T06:56:46.165Z,7.79
2023-05-18T06:59:12.112Z,7.78
2023-05-18T07:01:40.037Z,7.87
2023-05-18T07:04:06.121Z,7.80
2023-05-18T07:06:32.072Z,7.88
2023-05-18T07:08:57.966Z,7.97
2023-05-18T07:11:23.918Z,8.05
2023-05-18T07:13:49.791Z,8.09
2023-05-18T07:16:15.820Z,8.15
2023-05-18T07:18:41.807Z,8.17
2023-05-18T07:21:07.860Z,8.27
2023-05-18T07:23:33.814Z,8.48
2023-05-18T07:25:59.709Z,8.49
2023-05-18T07:28:25.732Z,8.53
2023-05-18T07:30:51.650Z,8.55
2023-05-18T07:33:17.668Z,8.46
2023-05-18T07:35:43.624Z,8.64
2023-05-18T07:38:09.494Z,8.81
2023-05-18T07:40:35.455Z,8.94
2023-05-18T07:43:01.370Z,8.96
2023-05-18T07:45:27.376Z,9.03
2023-05-18T07:47:53.713Z,9.15
2023-05-18T07:50:19.587Z,9.18
2023-05-18T07:52:45.965Z,9.20
2023-05-18T07:55:12.167Z,9.43
2023-05-18T07:57:39.237Z,9.33
2023-05-18T08:00:06.233Z,9.38
2023-05-18T08:02:34.023Z,9.35
2023-05-18T08:05:00.316Z,9.37
2023-05-18T08:07:29.257Z,9.38
2023-05-18T08:09:56.383Z,9.53
2023-05-18T08:12:22.660Z,9.60
2023-05-18T08:14:48.523Z,9.51
2023-05-18T08:17:14.647Z,9.59
2023-05-18T08:19:41.952Z,9.78
2023-05-18T08:22:08.076Z,9.82
2023-05-18T08:24:34.042Z,10.01
2023-05-18T08:27:00.061Z,9.99
2023-05-18T08:29:26.004Z,10.07
2023-05-18T08:31:51.933Z,10.25
2023-05-18T08:34:17.922Z,10.35
2023-05-18T08:36:45.043Z,10.48
2023-05-18T08:39:11.857Z,10.74
2023-05-18T08:41:54.825Z,10.89
2023-05-18T08:44:25.279Z,10.87
2023-05-18T08:46:51.582Z,11.02
2023-05-18T08:49:19.719Z,10.93
2023-05-18T08:51:53.210Z,11.01
2023-05-18T08:54:20.591Z,10.74
2023-05-18T08:56:47.180Z,10.71
2023-05-18T08:59:17.912Z,10.73
2023-05-18T09:01:44.534Z,11.02
2023-05-18T09:04:12.082Z,11.36
2023-05-18T09:06:39.763Z,11.40
2023-05-18T09:09:05.917Z,11.48
2023-05-18T09:11:34.033Z,11.52
2023-05-18T09:14:00.467Z,11.51
2023-05-18T09:16:26.601Z,11.26
2023-05-18T09:18:53.244Z,11.20
2023-05-18T09:21:19.144Z,11.36
2023-05-18T09:23:47.421Z,11.30
2023-05-18T09:26:13.519Z,11.57
2023-05-18T09:28:41.230Z,11.78
2023-05-18T09:31:09.438Z,11.84
2023-05-18T09:33:37.484Z,11.76
2023-05-18T09:36:05.939Z,11.77
2023-05-18T09:38:37.488Z,11.81
2023-05-18T09:41:03.637Z,12.07
2023-05-18T09:43:29.606Z,12.37
2023-05-18T09:45:55.484Z,12.14
2023-05-18T09:48:24.855Z,12.27
2023-05-18T09:50:51.209Z,12.55
2023-05-18T09:53:17.381Z,12.75
2023-05-18T09:55:47.844Z,12.67
2023-05-18T09:58:14.483Z,12.92
2023-05-18T10:00:48.762Z,13.28
2023-05-18T10:03:20.112Z,13.21
2023-05-18T10:05:46.056Z,13.05
2023-05-18T10:08:14.239Z,12.95
2023-05-18T10:10:45.498Z,13.39
2023-05-18T10:13:19.591Z,13.78
2023-05-18T10:15:55.650Z,13.91
2023-05-18T10:18:24.420Z,14.25
2023-05-18T10:20:51.749Z,14.19
2023-05-18T10:23:19.692Z,14.19
2023-05-18T10:25:48.781Z,14.31
2023-05-18T10:28:26.801Z,14.14
2023-05-18T10:30:55.191Z,14.34
2023-05-18T10:33:29.530Z,14.47
2023-05-18T10:35:57.175Z,14.74
2023-05-18T10:38:27.591Z,14.80
2023-05-18T10:41:02.230Z,15.00
2023-05-18T10:43:28.441Z,15.30
2023-05-18T10:46:00.272Z,15.13
2023-05-18T10:48:28.596Z,15.23
2023-05-18T10:50:56.241Z,14.99
2023-05-18T10:53:25.184Z,14.98
2023-05-18T10:55:51.192Z,14.87
2023-05-18T10:58:19.489Z,15.08
2023-05-18T11:01:08.633Z,15.19
2023-05-18T11:03:35.077Z,15.73
2023-05-18T11:06:12.267Z,15.22
2023-05-18T11:08:50.735Z,15.45
2023-05-18T11:11:18.906Z,15.87
2023-05-18T11:13:48.910Z,16.37
2023-05-18T11:16:16.600Z,16.55
2023-05-18T11:18:48.580Z,16.72
2023-05-18T11:21:24.530Z,16.77
2023-05-18T11:24:13.049Z,16.73
2023-05-18T11:26:44.004Z,17.12
2023-05-18T11:29:29.930Z,16.88
2023-05-18T11:31:56.137Z,17.06
2023-05-18T11:34:45.784Z,16.81
2023-05-18T11:37:14.060Z,16.70
2023-05-18T11:39:51.626Z,16.78
2023-05-18T11:42:32.548Z,17.22
2023-05-18T11:45:05.937Z,17.40
2023-05-18T11:47:32.620Z,17.69
2023-05-18T11:50:00.044Z,17.37
2023-05-18T11:52:26.327Z,17.63
2023-05-18T11:54:53.494Z,17.77
2023-05-18T11:57:38.701Z,17.69
2023-05-18T12:00:07.307Z,17.35
2023-05-18T12:02:34.406Z,17.84
2023-05-18T12:05:02.270Z,17.60
2023-05-18T12:07:30.040Z,17.89
2023-05-18T12:10:01.111Z,17.74
2023-05-18T12:12:27.629Z,18.21
2023-05-18T12:15:01.277Z,17.75
2023-05-18T12:17:40.096Z,17.80
2023-05-18T12:20:08.596Z,17.51
2023-05-18T12:22:34.904Z,17.81
2023-05-18T12:25:01.021Z,18.22
2023-05-18T12:27:26.949Z,18.48
2023-05-18T12:29:53.553Z,18.00
2023-05-18T12:32:19.703Z,17.71
2023-05-18T12:34:45.586Z,18.20
2023-05-18T12:37:14.154Z,18.58
2023-05-18T12:39:40.421Z,18.79
2023-05-18T12:42:17.256Z,19.02
2023-05-18T12:44:44.475Z,18.52
2023-05-18T12:47:14.183Z,17.96
2023-05-18T12:49:42.346Z,18.42
2023-05-18T12:52:10.800Z,19.14
2023-05-18T12:54:38.438Z,19.82
2023-05-18T12:57:09.313Z,19.81
2023-05-18T12:59:35.223Z,19.49
2023-05-18T13:02:01.207Z,19.52
2023-05-18T13:04:36.659Z,19.37
2023-05-18T13:07:02.685Z,18.98
2023-05-18T13:09:28.683Z,18.71
2023-05-18T13:12:07.360Z,18.24
2023-05-18T13:14:37.716Z,18.06
2023-05-18T13:17:03.813Z,17.37
2023-05-18T13:19:30.893Z,18.39
2023-05-18T13:21:57.315Z,18.96
2023-05-18T13:24:23.206Z,18.98
2023-05-18T13:26:49.060Z,19.08
2023-05-18T13:29:14.999Z,19.42
2023-05-18T13:31:40.922Z,18.99
2023-05-18T13:34:06.896Z,18.09
2023-05-18T13:36:35.335Z,17.92
2023-05-18T13:39:04.762Z,18.56
2023-05-18T13:41:30.660Z,18.76
2023-05-18T13:43:56.538Z,19.26
2023-05-18T13:46:22.696Z,19.11
2023-05-18T13:48:48.585Z,18.82
2023-05-18T13:51:14.760Z,17.90
2023-05-18T13:53:40.956Z,17.63
2023-05-18T13:56:07.097Z,18.07
2023-05-18T13:58:33.018Z,18.82
2023-05-18T14:00:59.906Z,19.28
2023-05-18T14:03:26.129Z,19.14
2023-05-18T14:05:52.202Z,19.06
2023-05-18T14:08:18.117Z,19.14
2023-05-18T14:10:44.042Z,19.51
2023-05-18T14:13:10.102Z,19.83
2023-05-18T14:15:36.069Z,20.15
2023-05-18T14:18:02.126Z,19.74
2023-05-18T14:20:29.274Z,19.77
2023-05-18T14:22:55.701Z,20.15
2023-05-18T14:25:21.646Z,19.82
2023-05-18T14:27:47.632Z,19.92
2023-05-18T14:30:13.727Z,19.89
2023-05-18T14:32:39.815Z,19.85
2023-05-18T14:35:06.058Z,20.10
2023-05-18T14:37:32.244Z,19.18
2023-05-18T14:39:58.170Z,19.31
2023-05-18T14:42:24.089Z,19.47
2023-05-18T14:44:50.053Z,19.35
2023-05-18T14:47:17.162Z,19.31
2023-05-18T14:49:43.084Z,18.76
2023-05-18T14:52:08.946Z,19.26
2023-05-18T14:54:35.898Z,18.86
2023-05-18T14:57:01.719Z,18.69
2023-05-18T14:59:27.683Z,19.15
2023-05-18T15:01:53.637Z,18.82
2023-05-18T15:04:21.100Z,19.09
2023-05-18T15:06:48.345Z,18.89
2023-05-18T15:09:14.388Z,19.13
2023-05-18T15:11:40.328Z,19.27
2023-05-18T15:14:06.253Z,19.11
2023-05-18T15:16:32.321Z,19.05
2023-05-18T15:18:58.453Z,18.66
2023-05-18T15:21:24.440Z,18.74
2023-05-18T15:23:50.506Z,18.68
2023-05-18T15:26:16.535Z,18.84
2023-05-18T15:28:44.231Z,18.96
2023-05-18T15:31:10.132Z,18.62
2023-05-18T15:33:41.179Z,18.59
2023-05-18T15:36:07.750Z,17.93
2023-05-18T15:38:33.654Z,18.40
2023-05-18T15:40:59.589Z,18.38
2023-05-18T15:43:25.695Z,18.18
2023-05-18T15:45:51.732Z,18.19
2023-05-18T15:48:17.675Z,18.46
2023-05-18T15:50:43.615Z,18.40
2023-05-18T15:53:09.646Z,18.30
2023-05-18T15:55:35.503Z,18.30
2023-05-18T15:58:02.509Z,18.56
2023-05-18T16:00:29.113Z,18.81
2023-05-18T16:02:55.279Z,18.75
2023-05-18T16:05:21.274Z,18.60
2023-05-18T16:07:47.212Z,18.33
2023-05-18T16:10:13.597Z,18.04
2023-05-18T16:12:39.487Z,18.01
2023-05-18T16:15:05.929Z,18.36
2023-05-18T16:17:31.802Z,18.45
2023-05-18T16:19:57.725Z,18.71
2023-05-18T16:22:23.666Z,18.13
2023-05-18T16:24:49.623Z,18.03
2023-05-18T16:27:15.517Z,18.31
2023-05-18T16:29:41.783Z,18.01
2023-05-18T16:32:07.756Z,17.65
2023-05-18T16:34:33.738Z,17.64
2023-05-18T16:36:59.900Z,17.80
2023-05-18T16:39:27.227Z,17.93
2023-05-18T16:41:53.361Z,18.00
2023-05-18T16:44:19.246Z,17.88
2023-05-18T16:46:45.301Z,17.90
2023-05-18T16:49:11.240Z,17.54
2023-05-18T16:51:37.180Z,17.56
2023-05-18T16:54:03.294Z,17.68
2023-05-18T16:56:29.213Z,17.60
2023-05-18T16:58:55.075Z,17.10
2023-05-18T17:01:28.117Z,17.32
2023-05-18T17:03:54.563Z,17.31
2023-05-18T17:06:20.656Z,16.97
2023-05-18T17:08:47.348Z,17.21
2023-05-18T17:11:13.663Z,17.25
2023-05-18T17:13:39.815Z,17.12
2023-05-18T17:16:06.050Z,16.93
2023-05-18T17:18:32.070Z,16.86
2023-05-18T17:20:57.989Z,16.83
2023-05-18T17:23:23.988Z,16.98
2023-05-18T17:25:50.521Z,16.63
2023-05-18T17:28:18.638Z,16.62
2023-05-18T17:30:44.585Z,16.64
2023-05-18T17:33:10.620Z,16.51
2023-05-18T17:35:36.511Z,16.58
2023-05-18T17:38:02.435Z,16.26
2023-05-18T17:40:28.294Z,16.46
2023-05-18T17:42:54.262Z,16.42
2023-05-18T17:45:20.475Z,16.41
2023-05-18T17:47:46.489Z,16.02
2023-05-18T17:50:15.222Z,15.76
2023-05-18T17:52:41.237Z,15.64
2023-05-18T17:55:14.344Z,15.41
2023-05-18T17:57:44.386Z,15.61
2023-05-18T18:00:12.547Z,15.68
2023-05-18T18:02:39.270Z,15.79
2023-05-18T18:05:05.756Z,15.65
2023-05-18T18:07:31.702Z,15.24
2023-05-18T18:09:57.821Z,15.23
2023-05-18T18:12:23.795Z,15.32
2023-05-18T18:14:49.756Z,15.43
2023-05-18T18:17:15.869Z,15.13
2023-05-18T18:19:42.002Z,15.04
2023-05-18T18:22:07.964Z,15.11
2023-05-18T18:24:33.929Z,14.91
2023-05-18T18:27:00.541Z,14.71
2023-05-18T18:29:29.091Z,14.62
2023-05-18T18:31:55.413Z,14.50
2023-05-18T18:34:21.432Z,14.45
2023-05-18T18:36:47.452Z,14.11
2023-05-18T18:39:13.936Z,14.00
2023-05-18T18:41:41.790Z,14.10
2023-05-18T18:44:08.270Z,14.11
2023-05-18T18:46:34.354Z,13.98
2023-05-18T18:49:00.439Z,13.97
2023-05-18T18:51:26.408Z,13.74
2023-05-18T18:53:52.680Z,13.71
2023-05-18T18:56:18.613Z,13.68
2023-05-18T18:58:44.970Z,13.77
2023-05-18T19:01:11.009Z,13.62
2023-05-18T19:03:37.029Z,13.63
2023-05-18T19:06:03.505Z,13.71
2023-05-18T19:08:31.126Z,13.64
2023-05-18T19:10:57.408Z,13.53
2023-05-18T19:13:23.386Z,13.52
2023-05-18T19:15:50.607Z,13.46
2023-05-18T19:18:16.973Z,13.52
2023-05-18T19:20:43.220Z,13.31
2023-05-18T19:23:09.357Z,13.30
2023-05-18T19:25:35.393Z,13.22
2023-05-18T19:28:01.703Z,13.07
2023-05-18T19:30:27.690Z,13.13
2023-05-18T19:32:53.998Z,13.11
2023-05-18T19:35:21.279Z,13.09
2023-05-18T19:37:47.517Z,13.16
2023-05-18T19:40:13.490Z,13.09
2023-05-18T19:42:39.704Z,13.01
2023-05-18T19:45:06.076Z,12.97
2023-05-18T19:47:32.345Z,12.80
2023-05-18T19:49:59.053Z,12.78
2023-05-18T19:52:25.623Z,12.69
2023-05-18T19:54:51.851Z,12.71
2023-05-18T19:57:19.032Z,12.50
2023-05-18T19:59:45.063Z,12.36
2023-05-18T20:02:11.004Z,12.46
2023-05-18T20:04:36.911Z,12.51
2023-05-18T20:07:03.045Z,12.47
2023-05-18T20:09:29.036Z,12.55
2023-05-18T20:11:57.728Z,12.45
2023-05-18T20:14:24.206Z,12.37
2023-05-18T20:16:55.401Z,12.19
2023-05-18T20:19:22.677Z,12.21
2023-05-18T20:21:49.351Z,12.10
2023-05-18T20:24:15.528Z,12.09
2023-05-18T20:26:41.759Z,12.11
2023-05-18T20:29:07.775Z,12.08
2023-05-18T20:31:33.972Z,12.08
2023-05-18T20:34:00.270Z,12.07
2023-05-18T20:36:26.329Z,11.90
2023-05-18T20:38:53.606Z,11.84
2023-05-18T20:41:22.132Z,11.87
2023-05-18T20:43:50.434Z,11.82
2023-05-18T20:46:16.955Z,11.73
2023-05-18T20:48:44.138Z,11.71
2023-05-18T20:51:14.906Z,11.59
2023-05-18T20:53:44.320Z,11.58
2023-05-18T20:56:11.712Z,11.54
2023-05-18T20:58:43.614Z,11.37
2023-05-18T21:01:10.108Z,11.29
2023-05-18T21:03:37.733Z,11.35
2023-05-18T21:06:04.309Z,11.33
2023-05-18T21:08:30.150Z,11.23
2023-05-18T21:10:56.084Z,11.12
2023-05-18T21:13:22.071Z,11.11
2023-05-18T21:15:48.139Z,11.25
2023-05-18T21:18:14.056Z,11.20
2023-05-18T21:20:40.095Z,11.20
2023-05-18T21:23:06.047Z,11.30
2023-05-18T21:25:32.034Z,11.18
2023-05-18T21:27:58.055Z,11.18
2023-05-18T21:30:24.583Z,11.25
2023-05-18T21:32:52.033Z,11.28
2023-05-18T21:35:18.211Z,11.08
2023-05-18T21:37:44.180Z,11.18
2023-05-18T21:40:10.165Z,10.96
2023-05-18T21:42:40.542Z,11.03
2023-05-18T21:45:07.153Z,10.93
2023-05-18T21:47:33.034Z,10.78
2023-05-18T21:49:58.908Z,10.84
2023-05-18T21:52:24.787Z,10.88
2023-05-18T21:54:50.666Z,10.73
2023-05-18T21:57:16.480Z,10.89
2023-05-18T21:59:42.395Z,10.79
2023-05-18T22:02:08.234Z,10.84
2023-05-18T22:04:37.139Z,10.81
2023-05-18T22:07:03.183Z,10.66
2023-05-18T22:09:31.780Z,10.49
2023-05-18T22:11:58.162Z,10.41
2023-05-18T22:14:24.095Z,10.40
2023-05-18T22:16:50.290Z,10.40
2023-05-18T22:19:16.334Z,10.25
2023-05-18T22:21:42.264Z,10.14
2023-05-18T22:24:08.181Z,10.16
2023-05-18T22:26:37.019Z,10.20
2023-05-18T22:29:02.958Z,10.19
2023-05-18T22:31:28.988Z,10.21
2023-05-18T22:33:55.115Z,10.15
2023-05-18T22:36:21.137Z,10.07
2023-05-18T22:38:48.512Z,10.02
2023-05-18T22:41:15.796Z,10.00
2023-05-18T22:43:41.681Z,9.84
2023-05-18T22:46:07.941Z,9.94
2023-05-18T22:48:34.174Z,9.89
2023-05-18T22:51:00.354Z,10.05
2023-05-18T22:53:26.756Z,10.04
2023-05-18T22:55:52.672Z,9.98
2023-05-18T22:58:18.622Z,9.88
2023-05-18T23:00:44.639Z,9.93
2023-05-18T23:03:10.528Z,9.89
2023-05-18T23:05:40.324Z,9.93
2023-05-18T23:08:06.534Z,9.87
2023-05-18T23:10:32.744Z,9.80
2023-05-18T23:12:59.157Z,9.57
2023-05-18T23:15:25.232Z,9.53
2023-05-18T23:17:53.863Z,9.49
2023-05-18T23:20:21.992Z,9.52
2023-05-18T23:22:48.553Z,9.55
2023-05-18T23:25:14.759Z,9.54
2023-05-18T23:27:40.875Z,9.51
2023-05-18T23:30:07.244Z,9.53
2023-05-18T23:32:34.604Z,9.53
2023-05-18T23:35:00.842Z,9.24
2023-05-18T23:37:29.838Z,9.35
2023-05-18T23:39:56.191Z,9.26
2023-05-18T23:42:24.047Z,9.12
2023-05-18T23:44:50.211Z,9.27
2023-05-18T23:47:16.425Z,9.14
2023-05-18T23:49:43.564Z,9.18
2023-05-18T23:52:09.968Z,9.03
2023-05-18T23:54:37.048Z,9.16
2023-05-18T23:57:03.931Z,9.09
2023-05-18T23:59:30.445Z,9.07
